sensor_id;sensor_type;location;lat;lon;timestamp;P1;durP1;ratioP1;P2;durP2;ratioP2
1887;SDS011;944;51.574;6.980;2022-08-19T01:58:22;10.13;;;9.10;;
1887;SDS011;944;51.574;6.980;2022-08-19T02:01:21;11.00;;;9.80;;
1887;SDS011;944;51.574;6.980;2022-08-19T02:04:13;10.27;;;9.17;;
1887;SDS011;944;51.574;6.980;2022-08-19T02:07:08;16.57;;;10.10;;
1887;SDS011;944;51.574;6.980;2022-08-19T02:10:11;12.63;;;9.50;;
1887;SDS011;944;51.574;6.980;2022-08-19T02:19:54;11.93;;;9.50;;
1887;SDS011;944;51.574;6.980;2022-08-19T02:22:31;14.20;;;9.87;;
1887;SDS011;944;51.574;6.980;2022-08-19T02:25:14;10.00;;;9.10;;
1887;SDS011;944;51.574;6.980;2022-08-19T02:28:25;13.20;;;9.70;;
1887;SDS011;944;51.574;6.980;2022-08-19T02:31:08;12.30;;;10.30;;
1887;SDS011;944;51.574;6.980;2022-08-19T02:34:19;11.70;;;9.00;;
1887;SDS011;944;51.574;6.980;2022-08-19T02:37:20;12.60;;;9.67;;
1887;SDS011;944;51.574;6.980;2022-08-19T02:40:13;10.67;;;9.47;;
1887;SDS011;944;51.574;6.980;2022-08-19T02:43:15;15.93;;;10.30;;
1887;SDS011;944;51.574;6.980;2022-08-19T02:46:20;10.80;;;9.63;;
1887;SDS011;944;51.574;6.980;2022-08-19T02:49:25;15.80;;;10.40;;
1887;SDS011;944;51.574;6.980;2022-08-19T02:55:24;12.00;;;9.20;;
1887;SDS011;944;51.574;6.980;2022-08-19T03:01:58;14.07;;;9.40;;
1887;SDS011;944;51.574;6.980;2022-08-19T03:04:36;17.33;;;10.53;;
1887;SDS011;944;51.574;6.980;2022-08-19T03:11:12;15.23;;;8.83;;
1887;SDS011;944;51.574;6.980;2022-08-19T03:14:20;12.77;;;8.40;;
1887;SDS011;944;51.574;6.980;2022-08-19T03:17:22;12.17;;;9.40;;
1887;SDS011;944;51.574;6.980;2022-08-19T03:33:57;16.30;;;10.00;;
1887;SDS011;944;51.574;6.980;2022-08-19T03:37:02;11.43;;;9.40;;
1887;SDS011;944;51.574;6.980;2022-08-19T03:39:57;11.93;;;8.83;;
1887;SDS011;944;51.574;6.980;2022-08-19T03:46:17;16.70;;;10.40;;
1887;SDS011;944;51.574;6.980;2022-08-19T03:49:18;13.33;;;9.00;;
1887;SDS011;944;51.574;6.980;2022-08-19T03:52:27;12.87;;;9.90;;
1887;SDS011;944;51.574;6.980;2022-08-19T03:55:01;13.83;;;9.83;;
1887;SDS011;944;51.574;6.980;2022-08-19T04:00:44;18.53;;;9.30;;
1887;SDS011;944;51.574;6.980;2022-08-19T04:03:13;14.17;;;10.00;;
1887;SDS011;944;51.574;6.980;2022-08-19T04:05:57;18.37;;;9.50;;
1887;SDS011;944;51.574;6.980;2022-08-19T04:08:36;22.87;;;10.73;;
1887;SDS011;944;51.574;6.980;2022-08-19T04:11:08;16.50;;;10.43;;
1887;SDS011;944;51.574;6.980;2022-08-19T04:13:50;16.37;;;10.47;;
1887;SDS011;944;51.574;6.980;2022-08-19T04:16:22;15.53;;;10.37;;
1887;SDS011;944;51.574;6.980;2022-08-19T04:19:22;11.60;;;10.40;;
1887;SDS011;944;51.574;6.980;2022-08-19T08:10:29;24.50;;;18.70;;
1887;SDS011;944;51.574;6.980;2022-08-19T08:13:12;32.97;;;19.97;;
1887;SDS011;944;51.574;6.980;2022-08-19T08:15:42;28.60;;;17.50;;
1887;SDS011;944;51.574;6.980;2022-08-19T08:18:10;25.93;;;19.67;;
1887;SDS011;944;51.574;6.980;2022-08-19T08:20:37;22.30;;;19.27;;
1887;SDS011;944;51.574;6.980;2022-08-19T08:23:06;28.83;;;19.57;;
1887;SDS011;944;51.574;6.980;2022-08-19T08:25:51;31.47;;;17.00;;
1887;SDS011;944;51.574;6.980;2022-08-19T08:28:21;23.97;;;18.07;;
1887;SDS011;944;51.574;6.980;2022-08-19T08:30:49;18.33;;;15.20;;
1887;SDS011;944;51.574;6.980;2022-08-19T08:33:17;20.73;;;16.80;;
1887;SDS011;944;51.574;6.980;2022-08-19T08:39:27;21.50;;;15.37;;
1887;SDS011;944;51.574;6.980;2022-08-19T08:41:56;22.43;;;14.80;;
1887;SDS011;944;51.574;6.980;2022-08-19T08:44:47;22.60;;;16.20;;
1887;SDS011;944;51.574;6.980;2022-08-19T08:47:22;23.00;;;17.33;;
1887;SDS011;944;51.574;6.980;2022-08-19T08:50:07;20.13;;;16.30;;
1887;SDS011;944;51.574;6.980;2022-08-19T08:52:45;23.77;;;19.37;;
1887;SDS011;944;51.574;6.980;2022-08-19T08:55:19;23.83;;;18.03;;
1887;SDS011;944;51.574;6.980;2022-08-19T08:57:52;28.03;;;18.20;;
1887;SDS011;944;51.574;6.980;2022-08-19T09:00:24;29.60;;;18.13;;
1887;SDS011;944;51.574;6.980;2022-08-19T09:02:56;24.87;;;15.90;;
1887;SDS011;944;51.574;6.980;2022-08-19T09:05:27;25.30;;;19.37;;
1887;SDS011;944;51.574;6.980;2022-08-19T09:08:05;27.17;;;18.20;;
1887;SDS011;944;51.574;6.980;2022-08-19T09:10:44;32.40;;;20.50;;
1887;SDS011;944;51.574;6.980;2022-08-19T09:13:17;24.67;;;18.20;;
1887;SDS011;944;51.574;6.980;2022-08-19T09:15:56;21.67;;;15.43;;
1887;SDS011;944;51.574;6.980;2022-08-19T09:18:38;22.97;;;16.47;;
1887;SDS011;944;51.574;6.980;2022-08-19T09:21:07;21.30;;;14.83;;
1887;SDS011;944;51.574;6.980;2022-08-19T09:23:34;22.03;;;16.33;;
1887;SDS011;944;51.574;6.980;2022-08-19T09:26:04;21.70;;;17.73;;
1887;SDS011;944;51.574;6.980;2022-08-19T09:28:34;23.30;;;16.87;;
1887;SDS011;944;51.574;6.980;2022-08-19T09:31:02;24.90;;;15.70;;
1887;SDS011;944;51.574;6.980;2022-08-19T09:33:29;21.50;;;14.73;;
1887;SDS011;944;51.574;6.980;2022-08-19T09:36:02;27.00;;;14.20;;
1887;SDS011;944;51.574;6.980;2022-08-19T09:38:34;20.57;;;13.20;;
1887;SDS011;944;51.574;6.980;2022-08-19T09:41:07;13.17;;;11.27;;
1887;SDS011;944;51.574;6.980;2022-08-19T09:43:38;13.77;;;11.83;;
1887;SDS011;944;51.574;6.980;2022-08-19T09:46:07;12.50;;;10.30;;
1887;SDS011;944;51.574;6.980;2022-08-19T09:48:35;18.47;;;11.83;;
1887;SDS011;944;51.574;6.980;2022-08-19T09:51:03;22.20;;;11.07;;
1887;SDS011;944;51.574;6.980;2022-08-19T09:53:32;92.47;;;14.23;;
1887;SDS011;944;51.574;6.980;2022-08-19T09:56:00;39.00;;;13.37;;
1887;SDS011;944;51.574;6.980;2022-08-19T09:58:28;18.90;;;14.60;;
1887;SDS011;944;51.574;6.980;2022-08-19T10:00:55;22.60;;;13.30;;
1887;SDS011;944;51.574;6.980;2022-08-19T10:03:25;18.83;;;14.37;;
1887;SDS011;944;51.574;6.980;2022-08-19T10:05:53;22.33;;;13.73;;
1887;SDS011;944;51.574;6.980;2022-08-19T10:08:23;19.53;;;15.20;;
1887;SDS011;944;51.574;6.980;2022-08-19T10:10:53;34.37;;;17.20;;
1887;SDS011;944;51.574;6.980;2022-08-19T10:13:23;21.20;;;14.63;;
1887;SDS011;944;51.574;6.980;2022-08-19T10:15:54;24.57;;;15.87;;
1887;SDS011;944;51.574;6.980;2022-08-19T10:18:23;23.43;;;14.00;;
1887;SDS011;944;51.574;6.980;2022-08-19T10:20:51;22.73;;;15.27;;
1887;SDS011;944;51.574;6.980;2022-08-19T10:23:19;18.87;;;13.50;;
1887;SDS011;944;51.574;6.980;2022-08-19T10:25:47;20.70;;;14.63;;
1887;SDS011;944;51.574;6.980;2022-08-19T10:28:19;21.17;;;14.60;;
1887;SDS011;944;51.574;6.980;2022-08-19T10:30:47;22.30;;;15.53;;
1887;SDS011;944;51.574;6.980;2022-08-19T10:33:16;23.40;;;16.87;;
1887;SDS011;944;51.574;6.980;2022-08-19T10:35:43;23.67;;;16.90;;
1887;SDS011;944;51.574;6.980;2022-08-19T10:38:11;24.97;;;15.13;;
1887;SDS011;944;51.574;6.980;2022-08-19T10:40:38;28.17;;;16.97;;
1887;SDS011;944;51.574;6.980;2022-08-19T10:43:05;26.40;;;17.23;;
1887;SDS011;944;51.574;6.980;2022-08-19T10:45:32;22.60;;;16.57;;
1887;SDS011;944;51.574;6.980;2022-08-19T10:47:59;24.03;;;17.13;;
1887;SDS011;944;51.574;6.980;2022-08-19T10:50:27;25.10;;;16.40;;
1887;SDS011;944;51.574;6.980;2022-08-19T10:53:11;34.40;;;16.47;;
1887;SDS011;944;51.574;6.980;2022-08-19T10:55:38;23.33;;;16.40;;
1887;SDS011;944;51.574;6.980;2022-08-19T10:58:28;20.13;;;16.17;;
1887;SDS011;944;51.574;6.980;2022-08-19T11:01:06;23.77;;;15.97;;
1887;SDS011;944;51.574;6.980;2022-08-19T11:03:33;22.90;;;15.03;;
1887;SDS011;944;51.574;6.980;2022-08-19T11:06:10;24.57;;;16.40;;
1887;SDS011;944;51.574;6.980;2022-08-19T11:08:37;22.03;;;16.50;;
1887;SDS011;944;51.574;6.980;2022-08-19T11:11:06;21.25;;;15.20;;
1887;SDS011;944;51.574;6.980;2022-08-19T11:13:37;27.93;;;15.17;;
1887;SDS011;944;51.574;6.980;2022-08-19T11:16:11;19.43;;;14.70;;
1887;SDS011;944;51.574;6.980;2022-08-19T11:22:29;22.70;;;14.97;;
1887;SDS011;944;51.574;6.980;2022-08-19T11:25:03;18.00;;;13.87;;
1887;SDS011;944;51.574;6.980;2022-08-19T11:27:39;24.10;;;16.30;;
1887;SDS011;944;51.574;6.980;2022-08-19T11:30:10;22.30;;;14.13;;
1887;SDS011;944;51.574;6.980;2022-08-19T11:32:40;19.13;;;13.67;;
1887;SDS011;944;51.574;6.980;2022-08-19T11:35:08;15.43;;;11.20;;
1887;SDS011;944;51.574;6.980;2022-08-19T11:37:38;19.37;;;12.20;;
1887;SDS011;944;51.574;6.980;2022-08-19T11:40:06;18.57;;;12.47;;
1887;SDS011;944;51.574;6.980;2022-08-19T11:42:34;19.30;;;13.87;;
1887;SDS011;944;51.574;6.980;2022-08-19T11:45:19;21.93;;;13.47;;
1887;SDS011;944;51.574;6.980;2022-08-19T11:47:46;17.70;;;11.83;;
1887;SDS011;944;51.574;6.980;2022-08-19T11:50:13;19.03;;;11.13;;
1887;SDS011;944;51.574;6.980;2022-08-19T11:52:42;18.97;;;10.83;;
1887;SDS011;944;51.574;6.980;2022-08-19T11:58:22;13.83;;;11.57;;
1887;SDS011;944;51.574;6.980;2022-08-19T12:00:50;15.60;;;10.33;;
1887;SDS011;944;51.574;6.980;2022-08-19T12:03:18;15.73;;;9.17;;
1887;SDS011;944;51.574;6.980;2022-08-19T12:05:55;17.10;;;10.27;;
1887;SDS011;944;51.574;6.980;2022-08-19T12:08:24;16.00;;;8.60;;
1887;SDS011;944;51.574;6.980;2022-08-19T12:10:51;9.20;;;7.13;;
1887;SDS011;944;51.574;6.980;2022-08-19T12:16:23;12.93;;;8.80;;
1887;SDS011;944;51.574;6.980;2022-08-19T12:18:53;17.10;;;10.57;;
1887;SDS011;944;51.574;6.980;2022-08-19T12:21:25;15.10;;;10.27;;
1887;SDS011;944;51.574;6.980;2022-08-19T12:27:18;12.57;;;9.07;;
1887;SDS011;944;51.574;6.980;2022-08-19T12:29:45;14.10;;;9.27;;
1887;SDS011;944;51.574;6.980;2022-08-19T12:35:07;10.83;;;7.60;;
1887;SDS011;944;51.574;6.980;2022-08-19T12:41:18;11.30;;;6.27;;
1887;SDS011;944;51.574;6.980;2022-08-19T12:43:46;10.47;;;6.00;;
1887;SDS011;944;51.574;6.980;2022-08-19T12:46:14;6.10;;;4.90;;
1887;SDS011;944;51.574;6.980;2022-08-19T12:48:44;7.80;;;5.17;;
1887;SDS011;944;51.574;6.980;2022-08-19T12:51:12;9.20;;;6.80;;
1887;SDS011;944;51.574;6.980;2022-08-19T12:53:45;11.10;;;6.10;;
1887;SDS011;944;51.574;6.980;2022-08-19T12:56:13;10.53;;;5.90;;
1887;SDS011;944;51.574;6.980;2022-08-19T12:58:43;12.77;;;5.33;;
1887;SDS011;944;51.574;6.980;2022-08-19T13:01:11;11.00;;;5.43;;
1887;SDS011;944;51.574;6.980;2022-08-19T13:03:41;7.70;;;5.40;;
1887;SDS011;944;51.574;6.980;2022-08-19T13:06:10;10.80;;;6.77;;
1887;SDS011;944;51.574;6.980;2022-08-19T13:08:38;7.63;;;4.27;;
1887;SDS011;944;51.574;6.980;2022-08-19T13:11:07;7.47;;;5.07;;
1887;SDS011;944;51.574;6.980;2022-08-19T13:13:39;8.60;;;4.90;;
1887;SDS011;944;51.574;6.980;2022-08-19T13:16:08;17.87;;;4.73;;
1887;SDS011;944;51.574;6.980;2022-08-19T13:18:37;6.67;;;4.80;;
1887;SDS011;944;51.574;6.980;2022-08-19T13:21:06;10.33;;;5.07;;
1887;SDS011;944;51.574;6.980;2022-08-19T13:23:36;8.60;;;5.90;;
1887;SDS011;944;51.574;6.980;2022-08-19T13:26:04;9.70;;;5.33;;
1887;SDS011;944;51.574;6.980;2022-08-19T13:28:34;8.50;;;5.00;;
1887;SDS011;944;51.574;6.980;2022-08-19T13:31:20;7.87;;;4.57;;
1887;SDS011;944;51.574;6.980;2022-08-19T13:34:07;17.77;;;5.60;;
1887;SDS011;944;51.574;6.980;2022-08-19T13:36:35;10.60;;;5.40;;
1887;SDS011;944;51.574;6.980;2022-08-19T13:39:24;7.60;;;4.80;;
1887;SDS011;944;51.574;6.980;2022-08-19T13:41:54;6.30;;;4.03;;
1887;SDS011;944;51.574;6.980;2022-08-19T13:44:32;6.73;;;4.47;;
1887;SDS011;944;51.574;6.980;2022-08-19T13:47:04;10.50;;;5.00;;
1887;SDS011;944;51.574;6.980;2022-08-19T13:49:35;7.13;;;4.47;;
1887;SDS011;944;51.574;6.980;2022-08-19T13:52:06;9.93;;;4.83;;
1887;SDS011;944;51.574;6.980;2022-08-19T13:54:33;13.60;;;5.03;;
1887;SDS011;944;51.574;6.980;2022-08-19T13:57:00;7.37;;;4.30;;
1887;SDS011;944;51.574;6.980;2022-08-19T13:59:27;8.73;;;4.07;;
1887;SDS011;944;51.574;6.980;2022-08-19T14:01:57;14.60;;;5.37;;
1887;SDS011;944;51.574;6.980;2022-08-19T14:04:26;12.57;;;5.30;;
1887;SDS011;944;51.574;6.980;2022-08-19T14:06:56;12.67;;;4.07;;
1887;SDS011;944;51.574;6.980;2022-08-19T14:09:23;11.73;;;5.30;;
1887;SDS011;944;51.574;6.980;2022-08-19T14:11:50;6.70;;;4.80;;
1887;SDS011;944;51.574;6.980;2022-08-19T14:14:19;6.73;;;5.60;;
1887;SDS011;944;51.574;6.980;2022-08-19T14:16:46;6.53;;;5.03;;
1887;SDS011;944;51.574;6.980;2022-08-19T14:19:16;13.97;;;5.10;;
1887;SDS011;944;51.574;6.980;2022-08-19T14:21:45;9.93;;;5.13;;
1887;SDS011;944;51.574;6.980;2022-08-19T14:24:13;8.40;;;4.97;;
1887;SDS011;944;51.574;6.980;2022-08-19T14:26:40;13.37;;;5.90;;
1887;SDS011;944;51.574;6.980;2022-08-19T14:29:07;9.03;;;6.30;;
1887;SDS011;944;51.574;6.980;2022-08-19T14:31:34;10.00;;;5.23;;
1887;SDS011;944;51.574;6.980;2022-08-19T14:34:04;10.87;;;6.43;;
1887;SDS011;944;51.574;6.980;2022-08-19T14:36:34;8.03;;;5.97;;
1887;SDS011;944;51.574;6.980;2022-08-19T14:39:04;9.60;;;6.70;;
1887;SDS011;944;51.574;6.980;2022-08-19T14:41:32;11.60;;;7.33;;
1887;SDS011;944;51.574;6.980;2022-08-19T14:43:59;16.90;;;9.33;;
1887;SDS011;944;51.574;6.980;2022-08-19T14:46:26;15.03;;;8.33;;
1887;SDS011;944;51.574;6.980;2022-08-19T14:48:58;11.40;;;8.10;;
1887;SDS011;944;51.574;6.980;2022-08-19T14:51:25;11.00;;;7.83;;
1887;SDS011;944;51.574;6.980;2022-08-19T14:57:37;10.27;;;8.03;;
1887;SDS011;944;51.574;6.980;2022-08-19T15:11:26;9.40;;;7.20;;
1887;SDS011;944;51.574;6.980;2022-08-19T16:07:11;14.50;;;9.53;;
1887;SDS011;944;51.574;6.980;2022-08-19T16:10:09;13.40;;;8.43;;
1887;SDS011;944;51.574;6.980;2022-08-19T16:13:36;14.13;;;8.40;;
1887;SDS011;944;51.574;6.980;2022-08-19T20:46:41;8.63;;;6.00;;
1887;SDS011;944;51.574;6.980;2022-08-19T20:49:08;10.33;;;6.33;;
1887;SDS011;944;51.574;6.980;2022-08-19T20:51:47;11.60;;;6.50;;
1887;SDS011;944;51.574;6.980;2022-08-19T20:54:18;6.60;;;5.90;;
1887;SDS011;944;51.574;6.980;2022-08-19T20:56:55;8.30;;;5.80;;
1887;SDS011;944;51.574;6.980;2022-08-19T20:59:27;9.80;;;6.43;;
1887;SDS011;944;51.574;6.980;2022-08-19T21:01:56;8.33;;;6.20;;
1887;SDS011;944;51.574;6.980;2022-08-19T21:04:26;10.07;;;6.40;;
1887;SDS011;944;51.574;6.980;2022-08-19T21:06:53;9.03;;;6.33;;
1887;SDS011;944;51.574;6.980;2022-08-19T21:09:22;7.90;;;6.57;;
1887;SDS011;944;51.574;6.980;2022-08-19T21:11:49;8.33;;;6.23;;
1887;SDS011;944;51.574;6.980;2022-08-19T21:14:17;8.17;;;6.70;;
1887;SDS011;944;51.574;6.980;2022-08-19T21:16:45;8.50;;;6.67;;
1887;SDS011;944;51.574;6.980;2022-08-19T21:19:14;9.07;;;6.23;;
1887;SDS011;944;51.574;6.980;2022-08-19T21:21:42;10.03;;;6.30;;
1887;SDS011;944;51.574;6.980;2022-08-19T21:24:09;12.23;;;7.50;;
1887;SDS011;944;51.574;6.980;2022-08-19T21:26:36;10.60;;;6.90;;
1887;SDS011;944;51.574;6.980;2022-08-19T21:29:03;10.47;;;7.17;;
1887;SDS011;944;51.574;6.980;2022-08-19T21:31:30;13.77;;;7.53;;
1887;SDS011;944;51.574;6.980;2022-08-19T21:33:57;11.17;;;8.70;;
1887;SDS011;944;51.574;6.980;2022-08-19T21:36:26;11.63;;;7.87;;
1887;SDS011;944;51.574;6.980;2022-08-19T21:38:53;11.73;;;7.87;;
1887;SDS011;944;51.574;6.980;2022-08-19T21:41:20;9.57;;;7.50;;
1887;SDS011;944;51.574;6.980;2022-08-19T21:43:47;15.17;;;7.30;;
1887;SDS011;944;51.574;6.980;2022-08-19T21:46:14;9.37;;;7.37;;
1887;SDS011;944;51.574;6.980;2022-08-19T21:48:41;11.60;;;7.90;;
1887;SDS011;944;51.574;6.980;2022-08-19T21:51:12;10.53;;;7.30;;
1887;SDS011;944;51.574;6.980;2022-08-19T21:53:40;13.57;;;9.77;;
1887;SDS011;944;51.574;6.980;2022-08-19T21:56:07;22.77;;;12.43;;
1887;SDS011;944;51.574;6.980;2022-08-19T21:58:35;13.40;;;8.73;;
1887;SDS011;944;51.574;6.980;2022-08-19T22:01:05;14.33;;;9.03;;
1887;SDS011;944;51.574;6.980;2022-08-19T22:03:32;15.73;;;9.57;;
1887;SDS011;944;51.574;6.980;2022-08-19T22:06:01;13.90;;;9.70;;
1887;SDS011;944;51.574;6.980;2022-08-19T22:08:30;16.30;;;10.57;;
1887;SDS011;944;51.574;6.980;2022-08-19T22:10:58;14.97;;;10.10;;
1887;SDS011;944;51.574;6.980;2022-08-19T22:13:26;15.50;;;11.20;;
1887;SDS011;944;51.574;6.980;2022-08-19T22:16:00;17.37;;;11.60;;
1887;SDS011;944;51.574;6.980;2022-08-19T22:18:27;13.53;;;10.80;;
1887;SDS011;944;51.574;6.980;2022-08-19T22:20:58;13.73;;;9.27;;
1887;SDS011;944;51.574;6.980;2022-08-19T22:23:25;15.83;;;10.83;;
1887;SDS011;944;51.574;6.980;2022-08-19T22:25:52;14.90;;;10.73;;
1887;SDS011;944;51.574;6.980;2022-08-19T22:28:21;15.03;;;10.17;;
1887;SDS011;944;51.574;6.980;2022-08-19T22:30:52;13.80;;;9.00;;
1887;SDS011;944;51.574;6.980;2022-08-19T22:37:00;17.03;;;9.70;;
1887;SDS011;944;51.574;6.980;2022-08-19T22:39:27;16.80;;;10.60;;
1887;SDS011;944;51.574;6.980;2022-08-19T22:41:54;16.80;;;11.50;;
1887;SDS011;944;51.574;6.980;2022-08-19T22:44:22;17.87;;;11.13;;
1887;SDS011;944;51.574;6.980;2022-08-19T22:46:50;22.33;;;12.07;;
1887;SDS011;944;51.574;6.980;2022-08-19T22:49:17;20.20;;;12.90;;
1887;SDS011;944;51.574;6.980;2022-08-19T22:51:44;21.60;;;12.60;;
1887;SDS011;944;51.574;6.980;2022-08-19T22:54:29;19.57;;;12.57;;
1887;SDS011;944;51.574;6.980;2022-08-19T22:56:58;21.93;;;13.17;;
1887;SDS011;944;51.574;6.980;2022-08-19T22:59:27;21.90;;;13.73;;
1887;SDS011;944;51.574;6.980;2022-08-19T23:01:58;21.20;;;13.60;;
1887;SDS011;944;51.574;6.980;2022-08-19T23:04:25;28.40;;;14.93;;
1887;SDS011;944;51.574;6.980;2022-08-19T23:06:52;22.90;;;15.43;;
1887;SDS011;944;51.574;6.980;2022-08-19T23:09:20;24.87;;;15.93;;
1887;SDS011;944;51.574;6.980;2022-08-19T23:11:47;24.27;;;16.00;;
1887;SDS011;944;51.574;6.980;2022-08-19T23:14:15;25.00;;;16.70;;
1887;SDS011;944;51.574;6.980;2022-08-19T23:16:44;28.10;;;15.93;;
1887;SDS011;944;51.574;6.980;2022-08-19T23:19:15;33.60;;;21.43;;
1887;SDS011;944;51.574;6.980;2022-08-19T23:21:43;36.27;;;23.70;;
1887;SDS011;944;51.574;6.980;2022-08-19T23:24:10;34.97;;;18.97;;
1887;SDS011;944;51.574;6.980;2022-08-19T23:26:39;24.77;;;16.93;;
